sensor_id;sensor_type;location;lat;lon;timestamp;temperature;humidity
20231;DHT22;10274;49.022;9.338;2023-02-01T00:01:34;5.40;1.00
20231;DHT22;10274;49.022;9.338;2023-02-01T00:04:00;5.40;1.00
20231;DHT22;10274;49.022;9.338;2023-02-01T00:06:28;5.50;1.00
20231;DHT22;10274;49.022;9.338;2023-02-01T00:08:55;5.40;1.00
20231;DHT22;10274;49.022;9.338;2023-02-01T00:11:23;5.50;1.00
20231;DHT22;10274;49.022;9.338;2023-02-01T00:13:50;5.40;1.00
20231;DHT22;10274;49.022;9.338;2023-02-01T00:16:18;5.40;1.00
20231;DHT22;10274;49.022;9.338;2023-02-01T00:18:47;5.40;1.00
20231;DHT22;10274;49.022;9.338;2023-02-01T00:21:16;5.40;1.00
20231;DHT22;10274;49.022;9.338;2023-02-01T00:23:44;5.40;1.00
20231;DHT22;10274;49.022;9.338;2023-02-01T00:26:14;5.50;1.00
20231;DHT22;10274;49.022;9.338;2023-02-01T00:28:41;5.50;1.00
20231;DHT22;10274;49.022;9.338;2023-02-01T00:31:08;5.50;1.00
20231;DHT22;10274;49.022;9.338;2023-02-01T00:33:35;5.50;1.00
20231;DHT22;10274;49.022;9.338;2023-02-01T00:36:03;5.50;1.00
20231;DHT22;10274;49.022;9.338;2023-02-01T00:38:32;5.40;1.00
20231;DHT22;10274;49.022;9.338;2023-02-01T00:41:03;5.50;1.00
20231;DHT22;10274;49.022;9.338;2023-02-01T00:43:31;5.50;1.00
20231;DHT22;10274;49.022;9.338;2023-02-01T00:45:58;5.50;1.00
20231;DHT22;10274;49.022;9.338;2023-02-01T00:48:25;5.50;1.00
20231;DHT22;10274;49.022;9.338;2023-02-01T00:50:52;5.40;1.00
20231;DHT22;10274;49.022;9.338;2023-02-01T00:53:19;5.50;1.00
20231;DHT22;10274;49.022;9.338;2023-02-01T00:55:46;5.40;1.00
20231;DHT22;10274;49.022;9.338;2023-02-01T00:58:14;5.40;1.00
20231;DHT22;10274;49.022;9.338;2023-02-01T01:00:41;5.40;1.00
20231;DHT22;10274;49.022;9.338;2023-02-01T01:03:08;5.40;1.00
20231;DHT22;10274;49.022;9.338;2023-02-01T01:05:44;5.40;1.00
20231;DHT22;10274;49.022;9.338;2023-02-01T01:08:11;5.40;1.00
20231;DHT22;10274;49.022;9.338;2023-02-01T01:10:38;5.50;1.00
20231;DHT22;10274;49.022;9.338;2023-02-01T01:13:05;5.40;1.00
20231;DHT22;10274;49.022;9.338;2023-02-01T01:15:36;5.40;1.00
20231;DHT22;10274;49.022;9.338;2023-02-01T01:18:03;5.40;1.00
20231;DHT22;10274;49.022;9.338;2023-02-01T01:20:30;5.40;1.00
20231;DHT22;10274;49.022;9.338;2023-02-01T01:22:57;5.40;1.00
20231;DHT22;10274;49.022;9.338;2023-02-01T01:25:23;5.40;1.00
20231;DHT22;10274;49.022;9.338;2023-02-01T01:27:50;5.50;1.00
20231;DHT22;10274;49.022;9.338;2023-02-01T01:30:17;5.50;1.00
20231;DHT22;10274;49.022;9.338;2023-02-01T01:32:45;5.50;1.00
20231;DHT22;10274;49.022;9.338;2023-02-01T01:35:12;5.40;1.00
20231;DHT22;10274;49.022;9.338;2023-02-01T01:37:39;5.50;1.00
20231;DHT22;10274;49.022;9.338;2023-02-01T01:40:07;5.50;1.00
20231;DHT22;10274;49.022;9.338;2023-02-01T01:42:37;5.50;1.00
20231;DHT22;10274;49.022;9.338;2023-02-01T01:45:06;5.60;1.00
20231;DHT22;10274;49.022;9.338;2023-02-01T01:47:36;5.60;1.00
20231;DHT22;10274;49.022;9.338;2023-02-01T01:50:07;5.60;1.00
20231;DHT22;10274;49.022;9.338;2023-02-01T01:52:37;5.60;1.00
20231;DHT22;10274;49.022;9.338;2023-02-01T01:55:05;5.60;1.00
20231;DHT22;10274;49.022;9.338;2023-02-01T01:57:35;5.60;1.00
20231;DHT22;10274;49.022;9.338;2023-02-01T02:00:06;5.60;1.00
20231;DHT22;10274;49.022;9.338;2023-02-01T02:02:35;5.70;1.00
20231;DHT22;10274;49.022;9.338;2023-02-01T02:05:02;5.60;1.00
20231;DHT22;10274;49.022;9.338;2023-02-01T02:07:35;5.60;1.00
20231;DHT22;10274;49.022;9.338;2023-02-01T02:10:04;5.70;1.00
20231;DHT22;10274;49.022;9.338;2023-02-01T02:12:32;5.60;1.00
20231;DHT22;10274;49.022;9.338;2023-02-01T02:14:59;5.60;1.00
20231;DHT22;10274;49.022;9.338;2023-02-01T02:17:31;5.70;1.00
20231;DHT22;10274;49.022;9.338;2023-02-01T02:20:27;5.70;1.00
20231;DHT22;10274;49.022;9.338;2023-02-01T02:26:25;5.60;1.00
20231;DHT22;10274;49.022;9.338;2023-02-01T02:29:17;5.60;1.00
20231;DHT22;10274;49.022;9.338;2023-02-01T02:34:55;5.60;1.00
20231;DHT22;10274;49.022;9.338;2023-02-01T02:37:31;5.60;1.00
20231;DHT22;10274;49.022;9.338;2023-02-01T02:40:10;5.60;1.00
20231;DHT22;10274;49.022;9.338;2023-02-01T02:42:43;5.70;1.00
20231;DHT22;10274;49.022;9.338;2023-02-01T02:45:40;5.70;1.00
20231;DHT22;10274;49.022;9.338;2023-02-01T02:48:29;5.70;1.00
20231;DHT22;10274;49.022;9.338;2023-02-01T02:51:01;5.70;1.00
20231;DHT22;10274;49.022;9.338;2023-02-01T02:53:52;5.70;1.00
20231;DHT22;10274;49.022;9.338;2023-02-01T02:56:39;5.70;1.00
20231;DHT22;10274;49.022;9.338;2023-02-01T02:59:26;5.70;1.00
20231;DHT22;10274;49.022;9.338;2023-02-01T03:02:12;5.70;1.00
20231;DHT22;10274;49.022;9.338;2023-02-01T03:04:57;5.70;1.00
20231;DHT22;10274;49.022;9.338;2023-02-01T03:07:48;5.60;1.00
20231;DHT22;10274;49.022;9.338;2023-02-01T03:10:20;5.60;1.00
20231;DHT22;10274;49.022;9.338;2023-02-01T03:12:51;5.70;1.00
20231;DHT22;10274;49.022;9.338;2023-02-01T03:15:21;5.60;1.00
20231;DHT22;10274;49.022;9.338;2023-02-01T03:17:52;5.50;1.00
20231;DHT22;10274;49.022;9.338;2023-02-01T03:20:22;5.40;1.00
20231;DHT22;10274;49.022;9.338;2023-02-01T03:22:53;5.40;1.00
20231;DHT22;10274;49.022;9.338;2023-02-01T03:25:25;5.30;1.00
20231;DHT22;10274;49.022;9.338;2023-02-01T03:27:56;5.40;1.00
20231;DHT22;10274;49.022;9.338;2023-02-01T03:30:27;5.40;1.00
20231;DHT22;10274;49.022;9.338;2023-02-01T03:32:58;5.50;1.00
20231;DHT22;10274;49.022;9.338;2023-02-01T03:35:30;5.50;1.00
20231;DHT22;10274;49.022;9.338;2023-02-01T03:38:06;5.40;1.00
20231;DHT22;10274;49.022;9.338;2023-02-01T03:40:36;5.40;1.00
20231;DHT22;10274;49.022;9.338;2023-02-01T03:43:05;5.50;1.00
20231;DHT22;10274;49.022;9.338;2023-02-01T03:45:35;5.50;1.00
20231;DHT22;10274;49.022;9.338;2023-02-01T03:48:05;5.50;1.00
20231;DHT22;10274;49.022;9.338;2023-02-01T03:50:33;5.50;1.00
20231;DHT22;10274;49.022;9.338;2023-02-01T03:53:06;5.50;1.00
20231;DHT22;10274;49.022;9.338;2023-02-01T03:55:35;5.40;1.00
20231;DHT22;10274;49.022;9.338;2023-02-01T03:58:07;5.40;1.00
20231;DHT22;10274;49.022;9.338;2023-02-01T04:00:34;5.40;1.00
20231;DHT22;10274;49.022;9.338;2023-02-01T04:03:02;5.40;1.00
20231;DHT22;10274;49.022;9.338;2023-02-01T04:05:29;5.30;1.00
20231;DHT22;10274;49.022;9.338;2023-02-01T04:07:57;5.30;1.00
20231;DHT22;10274;49.022;9.338;2023-02-01T04:10:25;5.30;1.00
20231;DHT22;10274;49.022;9.338;2023-02-01T04:12:52;5.30;1.00
20231;DHT22;10274;49.022;9.338;2023-02-01T04:15:19;5.30;1.00
20231;DHT22;10274;49.022;9.338;2023-02-01T04:17:46;5.30;1.00
20231;DHT22;10274;49.022;9.338;2023-02-01T04:20:12;5.40;1.00
20231;DHT22;10274;49.022;9.338;2023-02-01T04:22:39;5.40;1.00
20231;DHT22;10274;49.022;9.338;2023-02-01T04:25:07;5.40;1.00
20231;DHT22;10274;49.022;9.338;2023-02-01T04:27:35;5.40;1.00
20231;DHT22;10274;49.022;9.338;2023-02-01T04:30:03;5.50;1.00
20231;DHT22;10274;49.022;9.338;2023-02-01T04:32:29;5.40;1.00
20231;DHT22;10274;49.022;9.338;2023-02-01T04:34:56;5.50;1.00
20231;DHT22;10274;49.022;9.338;2023-02-01T04:37:23;5.60;1.00
20231;DHT22;10274;49.022;9.338;2023-02-01T04:39:49;5.60;1.00
20231;DHT22;10274;49.022;9.338;2023-02-01T04:42:16;5.60;1.00
20231;DHT22;10274;49.022;9.338;2023-02-01T04:44:44;5.60;1.00
20231;DHT22;10274;49.022;9.338;2023-02-01T04:47:11;5.80;1.00
20231;DHT22;10274;49.022;9.338;2023-02-01T04:49:38;5.80;1.00
20231;DHT22;10274;49.022;9.338;2023-02-01T04:52:04;5.80;1.00
20231;DHT22;10274;49.022;9.338;2023-02-01T04:54:31;5.80;1.00
20231;DHT22;10274;49.022;9.338;2023-02-01T04:56:58;5.80;1.00
20231;DHT22;10274;49.022;9.338;2023-02-01T04:59:24;5.90;1.00
20231;DHT22;10274;49.022;9.338;2023-02-01T05:01:53;5.90;1.00
20231;DHT22;10274;49.022;9.338;2023-02-01T05:04:19;5.90;1.00
20231;DHT22;10274;49.022;9.338;2023-02-01T05:06:46;5.80;1.00
20231;DHT22;10274;49.022;9.338;2023-02-01T05:09:13;5.90;1.00
20231;DHT22;10274;49.022;9.338;2023-02-01T05:11:39;5.90;1.00
20231;DHT22;10274;49.022;9.338;2023-02-01T05:14:24;5.90;1.00
20231;DHT22;10274;49.022;9.338;2023-02-01T05:16:50;5.90;1.00
20231;DHT22;10274;49.022;9.338;2023-02-01T05:19:19;5.90;1.00
20231;DHT22;10274;49.022;9.338;2023-02-01T05:21:45;5.90;1.00
20231;DHT22;10274;49.022;9.338;2023-02-01T05:24:12;5.90;1.00
20231;DHT22;10274;49.022;9.338;2023-02-01T05:26:42;5.90;1.00
20231;DHT22;10274;49.022;9.338;2023-02-01T05:29:09;5.90;1.00
20231;DHT22;10274;49.022;9.338;2023-02-01T05:31:36;5.90;1.00
20231;DHT22;10274;49.022;9.338;2023-02-01T05:34:03;5.90;1.00
20231;DHT22;10274;49.022;9.338;2023-02-01T05:36:32;5.90;1.00
20231;DHT22;10274;49.022;9.338;2023-02-01T05:38:58;6.00;1.00
20231;DHT22;10274;49.022;9.338;2023-02-01T05:41:25;5.90;1.00
20231;DHT22;10274;49.022;9.338;2023-02-01T05:43:52;5.90;1.00
20231;DHT22;10274;49.022;9.338;2023-02-01T05:46:19;5.90;1.00
20231;DHT22;10274;49.022;9.338;2023-02-01T05:48:46;5.90;1.00
20231;DHT22;10274;49.022;9.338;2023-02-01T05:51:12;5.90;1.00
20231;DHT22;10274;49.022;9.338;2023-02-01T05:53:41;5.90;1.00
20231;DHT22;10274;49.022;9.338;2023-02-01T05:56:07;5.90;1.00
20231;DHT22;10274;49.022;9.338;2023-02-01T05:58:34;5.90;1.00
20231;DHT22;10274;49.022;9.338;2023-02-01T06:01:02;5.90;1.00
20231;DHT22;10274;49.022;9.338;2023-02-01T06:03:29;5.80;1.00
20231;DHT22;10274;49.022;9.338;2023-02-01T06:05:55;5.80;1.00
20231;DHT22;10274;49.022;9.338;2023-02-01T06:08:22;5.80;1.00
20231;DHT22;10274;49.022;9.338;2023-02-01T06:10:57;5.80;1.00
20231;DHT22;10274;49.022;9.338;2023-02-01T06:13:24;5.80;1.00
20231;DHT22;10274;49.022;9.338;2023-02-01T06:15:51;5.80;1.00
20231;DHT22;10274;49.022;9.338;2023-02-01T06:18:17;5.80;1.00
20231;DHT22;10274;49.022;9.338;2023-02-01T06:20:44;5.90;1.00
20231;DHT22;10274;49.022;9.338;2023-02-01T06:23:11;5.80;1.00
20231;DHT22;10274;49.022;9.338;2023-02-01T06:25:38;5.80;1.00
20231;DHT22;10274;49.022;9.338;2023-02-01T06:28:06;5.80;1.00
20231;DHT22;10274;49.022;9.338;2023-02-01T06:30:33;5.80;1.00
20231;DHT22;10274;49.022;9.338;2023-02-01T06:33:00;5.80;1.00
20231;DHT22;10274;49.022;9.338;2023-02-01T06:35:27;5.80;1.00
20231;DHT22;10274;49.022;9.338;2023-02-01T06:37:53;5.80;1.00
20231;DHT22;10274;49.022;9.338;2023-02-01T06:40:20;5.80;1.00
20231;DHT22;10274;49.022;9.338;2023-02-01T06:42:48;5.80;1.00
20231;DHT22;10274;49.022;9.338;2023-02-01T06:45:16;5.80;1.00
20231;DHT22;10274;49.022;9.338;2023-02-01T06:47:43;5.80;1.00
20231;DHT22;10274;49.022;9.338;2023-02-01T06:50:10;5.90;1.00
20231;DHT22;10274;49.022;9.338;2023-02-01T06:52:37;5.90;1.00
20231;DHT22;10274;49.022;9.338;2023-02-01T06:55:04;5.80;1.00
20231;DHT22;10274;49.022;9.338;2023-02-01T06:57:31;5.80;1.00
20231;DHT22;10274;49.022;9.338;2023-02-01T06:59:59;5.80;1.00
20231;DHT22;10274;49.022;9.338;2023-02-01T07:02:27;5.80;1.00
20231;DHT22;10274;49.022;9.338;2023-02-01T07:04:54;5.70;1.00
20231;DHT22;10274;49.022;9.338;2023-02-01T07:07:21;5.80;1.00
20231;DHT22;10274;49.022;9.338;2023-02-01T07:09:48;5.80;1.00
20231;DHT22;10274;49.022;9.338;2023-02-01T07:12:14;5.80;1.00
20231;DHT22;10274;49.022;9.338;2023-02-01T07:14:41;5.80;1.00
20231;DHT22;10274;49.022;9.338;2023-02-01T07:17:08;5.80;1.00
20231;DHT22;10274;49.022;9.338;2023-02-01T07:19:36;5.80;1.00
20231;DHT22;10274;49.022;9.338;2023-02-01T07:22:03;5.80;1.00
20231;DHT22;10274;49.022;9.338;2023-02-01T07:24:29;5.80;1.00
20231;DHT22;10274;49.022;9.338;2023-02-01T07:26:56;5.80;1.00
20231;DHT22;10274;49.022;9.338;2023-02-01T07:29:23;5.80;1.00
20231;DHT22;10274;49.022;9.338;2023-02-01T07:31:50;5.90;1.00
20231;DHT22;10274;49.022;9.338;2023-02-01T07:34:16;5.80;1.00
20231;DHT22;10274;49.022;9.338;2023-02-01T07:36:44;5.80;1.00
20231;DHT22;10274;49.022;9.338;2023-02-01T07:39:11;5.70;1.00
20231;DHT22;10274;49.022;9.338;2023-02-01T07:41:38;5.80;1.00
20231;DHT22;10274;49.022;9.338;2023-02-01T07:44:04;5.80;1.00
20231;DHT22;10274;49.022;9.338;2023-02-01T07:46:31;5.80;1.00
20231;DHT22;10274;49.022;9.338;2023-02-01T07:48:58;5.80;1.00
20231;DHT22;10274;49.022;9.338;2023-02-01T07:51:25;5.80;1.00
20231;DHT22;10274;49.022;9.338;2023-02-01T07:53:53;5.80;1.00
20231;DHT22;10274;49.022;9.338;2023-02-01T07:56:20;5.80;1.00
20231;DHT22;10274;49.022;9.338;2023-02-01T07:58:48;5.70;1.00
20231;DHT22;10274;49.022;9.338;2023-02-01T08:01:16;5.60;7.40
20231;DHT22;10274;49.022;9.338;2023-02-01T08:03:51;5.50;33.60
20231;DHT22;10274;49.022;9.338;2023-02-01T08:06:18;5.90;11.80
20231;DHT22;10274;49.022;9.338;2023-02-01T08:08:46;5.60;26.70
20231;DHT22;10274;49.022;9.338;2023-02-01T08:11:14;5.60;33.60
20231;DHT22;10274;49.022;9.338;2023-02-01T08:13:41;5.60;30.00
20231;DHT22;10274;49.022;9.338;2023-02-01T08:16:10;5.60;34.50
20231;DHT22;10274;49.022;9.338;2023-02-01T08:18:38;5.70;36.00
20231;DHT22;10274;49.022;9.338;2023-02-01T08:21:06;5.70;37.90
20231;DHT22;10274;49.022;9.338;2023-02-01T08:23:34;5.80;9.50
20231;DHT22;10274;49.022;9.338;2023-02-01T08:26:06;5.80;9.80
20231;DHT22;10274;49.022;9.338;2023-02-01T08:28:34;5.80;7.90
20231;DHT22;10274;49.022;9.338;2023-02-01T08:31:04;5.90;11.60
20231;DHT22;10274;49.022;9.338;2023-02-01T08:33:31;6.00;6.00
20231;DHT22;10274;49.022;9.338;2023-02-01T08:36:00;6.00;1.00
20231;DHT22;10274;49.022;9.338;2023-02-01T08:38:27;6.00;1.00
20231;DHT22;10274;49.022;9.338;2023-02-01T08:40:54;6.00;1.00
20231;DHT22;10274;49.022;9.338;2023-02-01T08:43:21;6.00;1.00
20231;DHT22;10274;49.022;9.338;2023-02-01T08:45:49;6.00;1.00
20231;DHT22;10274;49.022;9.338;2023-02-01T08:48:16;6.00;1.00
20231;DHT22;10274;49.022;9.338;2023-02-01T08:50:43;6.00;1.00
20231;DHT22;10274;49.022;9.338;2023-02-01T08:53:09;6.00;1.00
20231;DHT22;10274;49.022;9.338;2023-02-01T08:55:39;6.00;1.00
20231;DHT22;10274;49.022;9.338;2023-02-01T08:58:05;6.10;1.00
20231;DHT22;10274;49.022;9.338;2023-02-01T09:00:32;6.10;1.00
20231;DHT22;10274;49.022;9.338;2023-02-01T09:03:00;6.20;1.00
20231;DHT22;10274;49.022;9.338;2023-02-01T09:05:27;6.30;1.00
20231;DHT22;10274;49.022;9.338;2023-02-01T09:07:54;6.30;1.00
20231;DHT22;10274;49.022;9.338;2023-02-01T09:10:21;6.40;1.00
20231;DHT22;10274;49.022;9.338;2023-02-01T09:12:47;6.40;1.00
20231;DHT22;10274;49.022;9.338;2023-02-01T09:15:14;6.40;1.00
20231;DHT22;10274;49.022;9.338;2023-02-01T09:17:41;6.50;1.00
20231;DHT22;10274;49.022;9.338;2023-02-01T09:20:11;6.50;1.00
20231;DHT22;10274;49.022;9.338;2023-02-01T09:22:38;6.60;1.00
20231;DHT22;10274;49.022;9.338;2023-02-01T09:25:07;6.60;1.00
20231;DHT22;10274;49.022;9.338;2023-02-01T09:27:34;6.60;1.00
20231;DHT22;10274;49.022;9.338;2023-02-01T09:30:01;6.60;1.00
20231;DHT22;10274;49.022;9.338;2023-02-01T09:32:27;6.70;1.00
20231;DHT22;10274;49.022;9.338;2023-02-01T09:34:54;6.70;1.00
20231;DHT22;10274;49.022;9.338;2023-02-01T09:37:22;6.70;1.00
20231;DHT22;10274;49.022;9.338;2023-02-01T09:39:49;6.70;1.00
20231;DHT22;10274;49.022;9.338;2023-02-01T09:42:25;6.70;1.00
20231;DHT22;10274;49.022;9.338;2023-02-01T09:45:19;6.70;1.00
20231;DHT22;10274;49.022;9.338;2023-02-01T09:47:51;6.50;1.00
20231;DHT22;10274;49.022;9.338;2023-02-01T09:50:22;6.40;1.00
20231;DHT22;10274;49.022;9.338;2023-02-01T09:52:59;6.30;1.00
20231;DHT22;10274;49.022;9.338;2023-02-01T09:55:32;6.30;1.00
20231;DHT22;10274;49.022;9.338;2023-02-01T09:58:05;6.40;1.00
20231;DHT22;10274;49.022;9.338;2023-02-01T10:00:34;6.40;1.00
20231;DHT22;10274;49.022;9.338;2023-02-01T10:03:01;6.60;1.00
20231;DHT22;10274;49.022;9.338;2023-02-01T10:05:44;6.70;1.00
20231;DHT22;10274;49.022;9.338;2023-02-01T10:08:22;6.80;1.00
20231;DHT22;10274;49.022;9.338;2023-02-01T10:10:52;6.80;1.00
20231;DHT22;10274;49.022;9.338;2023-02-01T10:13:34;6.70;1.00
20231;DHT22;10274;49.022;9.338;2023-02-01T10:16:16;6.80;1.00
20231;DHT22;10274;49.022;9.338;2023-02-01T10:18:56;6.80;1.00
20231;DHT22;10274;49.022;9.338;2023-02-01T10:21:40;6.80;1.00
20231;DHT22;10274;49.022;9.338;2023-02-01T10:24:36;6.80;1.00
20231;DHT22;10274;49.022;9.338;2023-02-01T10:27:13;6.90;1.00
20231;DHT22;10274;49.022;9.338;2023-02-01T10:29:42;6.90;99.90
20231;DHT22;10274;49.022;9.338;2023-02-01T10:32:13;6.90;99.90
20231;DHT22;10274;49.022;9.338;2023-02-01T10:34:42;6.90;99.90
20231;DHT22;10274;49.022;9.338;2023-02-01T10:40:02;6.90;99.90
20231;DHT22;10274;49.022;9.338;2023-02-01T10:42:35;7.00;99.90
20231;DHT22;10274;49.022;9.338;2023-02-01T10:45:03;7.00;99.90
20231;DHT22;10274;49.022;9.338;2023-02-01T10:47:30;7.00;99.90
20231;DHT22;10274;49.022;9.338;2023-02-01T10:50:03;7.00;99.90
20231;DHT22;10274;49.022;9.338;2023-02-01T10:52:39;6.90;95.10
20231;DHT22;10274;49.022;9.338;2023-02-01T10:55:32;6.90;92.00
20231;DHT22;10274;49.022;9.338;2023-02-01T10:58:00;6.80;99.90
20231;DHT22;10274;49.022;9.338;2023-02-01T11:00:28;6.80;99.90
20231;DHT22;10274;49.022;9.338;2023-02-01T11:03:00;6.90;99.90
20231;DHT22;10274;49.022;9.338;2023-02-01T11:05:45;6.90;1.00
20231;DHT22;10274;49.022;9.338;2023-02-01T11:08:14;7.00;1.00
20231;DHT22;10274;49.022;9.338;2023-02-01T11:10:43;7.10;1.00
20231;DHT22;10274;49.022;9.338;2023-02-01T11:13:14;7.30;99.90
20231;DHT22;10274;49.022;9.338;2023-02-01T11:15:43;7.60;99.90
20231;DHT22;10274;49.022;9.338;2023-02-01T11:18:17;8.30;99.90
20231;DHT22;10274;49.022;9.338;2023-02-01T11:20:46;7.70;99.90
20231;DHT22;10274;49.022;9.338;2023-02-01T11:23:16;7.50;97.50
20231;DHT22;10274;49.022;9.338;2023-02-01T11:25:54;7.30;1.00
20231;DHT22;10274;49.022;9.338;2023-02-01T11:28:24;7.20;1.00
20231;DHT22;10274;49.022;9.338;2023-02-01T11:30:54;7.10;99.90
20231;DHT22;10274;49.022;9.338;2023-02-01T11:33:24;7.00;99.90
20231;DHT22;10274;49.022;9.338;2023-02-01T11:35:55;7.00;99.90
20231;DHT22;10274;49.022;9.338;2023-02-01T11:38:26;6.90;99.90
20231;DHT22;10274;49.022;9.338;2023-02-01T11:40:55;6.90;99.90
20231;DHT22;10274;49.022;9.338;2023-02-01T11:43:24;7.00;1.00
20231;DHT22;10274;49.022;9.338;2023-02-01T11:45:56;7.10;1.00
20231;DHT22;10274;49.022;9.338;2023-02-01T11:48:25;7.10;1.00
20231;DHT22;10274;49.022;9.338;2023-02-01T11:51:13;7.10;1.00
20231;DHT22;10274;49.022;9.338;2023-02-01T11:53:58;7.00;1.00
20231;DHT22;10274;49.022;9.338;2023-02-01T11:56:33;7.10;1.00
20231;DHT22;10274;49.022;9.338;2023-02-01T11:59:12;7.10;1.00
20231;DHT22;10274;49.022;9.338;2023-02-01T12:01:54;7.10;99.90
20231;DHT22;10274;49.022;9.338;2023-02-01T12:04:43;7.20;1.00
20231;DHT22;10274;49.022;9.338;2023-02-01T12:07:14;7.30;99.90
20231;DHT22;10274;49.022;9.338;2023-02-01T12:09:53;7.30;1.00
20231;DHT22;10274;49.022;9.338;2023-02-01T12:12:27;7.40;1.00
20231;DHT22;10274;49.022;9.338;2023-02-01T12:21:06;7.10;1.00
20231;DHT22;10274;49.022;9.338;2023-02-01T12:23:57;7.00;1.00
20231;DHT22;10274;49.022;9.338;2023-02-01T12:26:56;7.00;1.00
20231;DHT22;10274;49.022;9.338;2023-02-01T12:29:58;7.00;17.60
20231;DHT22;10274;49.022;9.338;2023-02-01T12:32:45;7.10;99.90
20231;DHT22;10274;49.022;9.338;2023-02-01T12:35:42;7.10;1.00
20231;DHT22;10274;49.022;9.338;2023-02-01T12:38:21;7.00;1.00
20231;DHT22;10274;49.022;9.338;2023-02-01T12:40:59;7.00;99.90
20231;DHT22;10274;49.022;9.338;2023-02-01T12:43:36;7.10;1.00
20231;DHT22;10274;49.022;9.338;2023-02-01T12:46:09;7.10;1.00
20231;DHT22;10274;49.022;9.338;2023-02-01T12:48:41;7.00;99.90
20231;DHT22;10274;49.022;9.338;2023-02-01T12:51:14;7.00;1.00
20231;DHT22;10274;49.022;9.338;2023-02-01T12:53:46;7.00;99.90
20231;DHT22;10274;49.022;9.338;2023-02-01T12:56:17;7.00;1.00
20231;DHT22;10274;49.022;9.338;2023-02-01T12:58:48;7.00;99.90
20231;DHT22;10274;49.022;9.338;2023-02-01T13:01:20;7.10;99.90
20231;DHT22;10274;49.022;9.338;2023-02-01T13:03:54;7.10;1.00
20231;DHT22;10274;49.022;9.338;2023-02-01T13:06:26;7.10;1.00
20231;DHT22;10274;49.022;9.338;2023-02-01T13:09:00;7.10;1.00
20231;DHT22;10274;49.022;9.338;2023-02-01T13:11:30;7.20;1.00
20231;DHT22;10274;49.022;9.338;2023-02-01T13:14:02;7.10;1.00
20231;DHT22;10274;49.022;9.338;2023-02-01T13:16:34;7.10;1.00
20231;DHT22;10274;49.022;9.338;2023-02-01T13:19:16;7.10;1.00
20231;DHT22;10274;49.022;9.338;2023-02-01T13:21:46;7.10;1.00
20231;DHT22;10274;49.022;9.338;2023-02-01T13:24:25;7.10;1.00
20231;DHT22;10274;49.022;9.338;2023-02-01T13:26:54;7.00;1.00
20231;DHT22;10274;49.022;9.338;2023-02-01T13:29:22;7.00;99.90
20231;DHT22;10274;49.022;9.338;2023-02-01T13:32:00;7.10;1.00
20231;DHT22;10274;49.022;9.338;2023-02-01T13:34:45;7.00;99.90
20231;DHT22;10274;49.022;9.338;2023-02-01T13:37:35;7.00;1.00
20231;DHT22;10274;49.022;9.338;2023-02-01T13:40:33;6.90;1.00
20231;DHT22;10274;49.022;9.338;2023-02-01T13:43:06;7.00;1.00
20231;DHT22;10274;49.022;9.338;2023-02-01T13:45:37;7.10;90.80
20231;DHT22;10274;49.022;9.338;2023-02-01T13:48:21;7.10;1.00
20231;DHT22;10274;49.022;9.338;2023-02-01T13:50:51;7.00;99.90
20231;DHT22;10274;49.022;9.338;2023-02-01T13:53:23;6.90;99.90
20231;DHT22;10274;49.022;9.338;2023-02-01T13:55:56;6.90;99.90
20231;DHT22;10274;49.022;9.338;2023-02-01T13:58:30;6.80;1.00
20231;DHT22;10274;49.022;9.338;2023-02-01T14:01:31;6.80;1.00
20231;DHT22;10274;49.022;9.338;2023-02-01T14:04:01;6.80;1.00
20231;DHT22;10274;49.022;9.338;2023-02-01T14:06:41;6.80;1.00
20231;DHT22;10274;49.022;9.338;2023-02-01T14:09:31;6.80;1.00
20231;DHT22;10274;49.022;9.338;2023-02-01T14:12:42;6.80;1.00
20231;DHT22;10274;49.022;9.338;2023-02-01T14:15:21;6.70;1.00
20231;DHT22;10274;49.022;9.338;2023-02-01T14:17:49;6.70;99.90
20231;DHT22;10274;49.022;9.338;2023-02-01T14:20:44;6.70;99.90
20231;DHT22;10274;49.022;9.338;2023-02-01T14:23:20;6.80;25.20
20231;DHT22;10274;49.022;9.338;2023-02-01T14:26:16;6.80;1.00
20231;DHT22;10274;49.022;9.338;2023-02-01T14:28:52;6.80;1.00
20231;DHT22;10274;49.022;9.338;2023-02-01T14:31:34;6.90;1.00
20231;DHT22;10274;49.022;9.338;2023-02-01T14:34:04;6.80;1.00
20231;DHT22;10274;49.022;9.338;2023-02-01T14:36:45;6.80;1.00
20231;DHT22;10274;49.022;9.338;2023-02-01T14:39:29;6.80;1.00
20231;DHT22;10274;49.022;9.338;2023-02-01T14:41:59;6.80;94.30
20231;DHT22;10274;49.022;9.338;2023-02-01T14:44:35;6.70;99.90
20231;DHT22;10274;49.022;9.338;2023-02-01T14:50:23;6.70;1.00
20231;DHT22;10274;49.022;9.338;2023-02-01T14:53:18;6.60;52.90
20231;DHT22;10274;49.022;9.338;2023-02-01T14:55:51;6.60;99.90
20231;DHT22;10274;49.022;9.338;2023-02-01T14:58:32;6.60;99.90
20231;DHT22;10274;49.022;9.338;2023-02-01T15:01:05;6.60;99.90
20231;DHT22;10274;49.022;9.338;2023-02-01T15:03:44;6.60;99.90
20231;DHT22;10274;49.022;9.338;2023-02-01T15:06:26;6.60;99.90
20231;DHT22;10274;49.022;9.338;2023-02-01T15:09:02;6.60;1.00
20231;DHT22;10274;49.022;9.338;2023-02-01T15:11:29;6.50;1.00
20231;DHT22;10274;49.022;9.338;2023-02-01T15:13:56;6.50;1.00
20231;DHT22;10274;49.022;9.338;2023-02-01T15:16:25;6.50;1.00
20231;DHT22;10274;49.022;9.338;2023-02-01T15:19:07;6.50;1.00
20231;DHT22;10274;49.022;9.338;2023-02-01T15:21:43;6.50;1.00
20231;DHT22;10274;49.022;9.338;2023-02-01T15:24:12;6.50;99.90
20231;DHT22;10274;49.022;9.338;2023-02-01T15:26:39;6.50;1.00
20231;DHT22;10274;49.022;9.338;2023-02-01T15:29:10;6.50;99.90
20231;DHT22;10274;49.022;9.338;2023-02-01T15:31:39;6.60;99.90
20231;DHT22;10274;49.022;9.338;2023-02-01T15:34:07;6.50;99.90
20231;DHT22;10274;49.022;9.338;2023-02-01T15:36:34;6.60;99.90
20231;DHT22;10274;49.022;9.338;2023-02-01T15:39:18;6.60;83.20
20231;DHT22;10274;49.022;9.338;2023-02-01T15:41:49;6.60;1.00
20231;DHT22;10274;49.022;9.338;2023-02-01T15:44:33;6.60;1.00
20231;DHT22;10274;49.022;9.338;2023-02-01T15:47:06;6.60;1.00
20231;DHT22;10274;49.022;9.338;2023-02-01T15:49:38;6.50;99.90
20231;DHT22;10274;49.022;9.338;2023-02-01T15:52:21;6.60;1.00
20231;DHT22;10274;49.022;9.338;2023-02-01T15:54:52;6.60;1.00
20231;DHT22;10274;49.022;9.338;2023-02-01T15:57:22;6.60;1.00
20231;DHT22;10274;49.022;9.338;2023-02-01T15:59:57;6.50;38.50
20231;DHT22;10274;49.022;9.338;2023-02-01T16:02:34;6.50;99.90
20231;DHT22;10274;49.022;9.338;2023-02-01T16:05:04;6.50;1.00
20231;DHT22;10274;49.022;9.338;2023-02-01T16:07:32;6.60;1.00
20231;DHT22;10274;49.022;9.338;2023-02-01T16:10:02;6.60;1.00
20231;DHT22;10274;49.022;9.338;2023-02-01T16:12:46;6.60;1.00
20231;DHT22;10274;49.022;9.338;2023-02-01T16:15:13;6.70;1.00
20231;DHT22;10274;49.022;9.338;2023-02-01T16:17:40;6.60;1.00
20231;DHT22;10274;49.022;9.338;2023-02-01T16:20:10;6.60;1.00
20231;DHT22;10274;49.022;9.338;2023-02-01T16:22:37;6.60;1.00
20231;DHT22;10274;49.022;9.338;2023-02-01T16:25:06;6.60;1.00
20231;DHT22;10274;49.022;9.338;2023-02-01T16:27:33;6.60;1.00
20231;DHT22;10274;49.022;9.338;2023-02-01T16:29:59;6.60;1.00
20231;DHT22;10274;49.022;9.338;2023-02-01T16:32:26;6.60;1.00
20231;DHT22;10274;49.022;9.338;2023-02-01T16:34:53;6.60;1.00
20231;DHT22;10274;49.022;9.338;2023-02-01T16:37:22;6.50;1.00
20231;DHT22;10274;49.022;9.338;2023-02-01T16:39:49;6.50;1.00
20231;DHT22;10274;49.022;9.338;2023-02-01T16:42:17;6.50;1.00
20231;DHT22;10274;49.022;9.338;2023-02-01T16:44:44;6.40;1.00
20231;DHT22;10274;49.022;9.338;2023-02-01T16:47:12;6.40;1.00